createdAt,value
2023-04-10T00:01:36.268Z,2.80
2023-04-10T00:04:04.915Z,2.70
2023-04-10T00:06:33.265Z,2.70
2023-04-10T00:09:00.768Z,2.70
2023-04-10T00:11:28.187Z,2.70
2023-04-10T00:13:55.755Z,2.70
2023-04-10T00:16:23.384Z,2.80
2023-04-10T00:18:51.030Z,2.70
2023-04-10T00:21:18.530Z,2.60
2023-04-10T00:23:46.237Z,2.50
2023-04-10T00:26:13.785Z,2.40
2023-04-10T00:28:43.592Z,2.30
2023-04-10T00:31:11.200Z,2.20
2023-04-10T00:33:38.607Z,2.20
2023-04-10T00:36:06.656Z,2.20
2023-04-10T00:38:34.095Z,2.20
2023-04-10T00:41:01.591Z,2.10
2023-04-10T00:43:28.945Z,2.00
2023-04-10T00:45:56.403Z,2.10
2023-04-10T00:48:24.160Z,2.10
2023-04-10T00:50:51.669Z,2.20
2023-04-10T00:53:19.131Z,2.20
2023-04-10T00:55:46.904Z,2.20
2023-04-10T00:58:14.837Z,2.10
2023-04-10T01:00:42.368Z,2.00
2023-04-10T01:03:12.552Z,2.00
2023-04-10T01:06:01.327Z,2.00
2023-04-10T01:08:52.437Z,2.00
2023-04-10T01:11:48.954Z,2.00
2023-04-10T01:14:54.379Z,1.90
2023-04-10T01:17:43.494Z,1.90
2023-04-10T01:20:16.540Z,2.00
2023-04-10T01:23:12.861Z,2.00
2023-04-10T01:26:14.163Z,2.00
2023-04-10T01:28:53.730Z,1.90
2023-04-10T01:31:37.613Z,1.80
2023-04-10T01:34:11.972Z,1.80
2023-04-10T01:36:53.613Z,1.70
2023-04-10T01:39:22.936Z,1.70
2023-04-10T01:41:53.026Z,1.80
2023-04-10T01:44:28.948Z,1.80
2023-04-10T01:46:57.777Z,1.80
2023-04-10T01:49:28.254Z,1.80
2023-04-10T01:52:03.483Z,1.80
2023-04-10T01:54:33.511Z,1.70
2023-04-10T01:57:04.132Z,1.70
2023-04-10T01:59:39.534Z,1.60
2023-04-10T02:02:07.987Z,1.40
2023-04-10T02:04:35.586Z,1.30
2023-04-10T02:07:18.699Z,1.30
2023-04-10T02:10:15.702Z,1.20
2023-04-10T02:12:54.077Z,1.20
2023-04-10T02:15:26.910Z,1.10
2023-04-10T02:17:56.593Z,1.10
2023-04-10T02:20:25.452Z,1.10
2023-04-10T02:22:53.707Z,1.10
2023-04-10T02:25:21.449Z,1.10
2023-04-10T02:27:49.762Z,1.00
2023-04-10T02:30:17.365Z,1.00
2023-04-10T02:32:45.239Z,1.00
2023-04-10T02:35:12.801Z,0.90
2023-04-10T02:37:40.406Z,0.90
2023-04-10T02:40:09.607Z,0.90
2023-04-10T02:42:46.696Z,0.80
2023-04-10T02:45:14.070Z,0.80
2023-04-10T02:47:44.006Z,0.70
2023-04-10T02:50:12.166Z,0.70
2023-04-10T02:52:43.371Z,0.70
2023-04-10T02:55:11.436Z,0.70
2023-04-10T02:57:41.081Z,0.70
2023-04-10T03:00:09.843Z,0.80
2023-04-10T03:03:09.625Z,0.80
2023-04-10T03:05:47.085Z,0.90
2023-04-10T03:08:17.405Z,0.90
2023-04-10T03:10:46.796Z,1.10
2023-04-10T03:13:15.448Z,1.10
2023-04-10T03:15:43.585Z,1.20
2023-04-10T03:18:11.180Z,1.10
2023-04-10T03:20:41.358Z,1.20
2023-04-10T03:23:09.899Z,1.20
2023-04-10T03:25:37.502Z,1.20
2023-04-10T03:28:07.181Z,1.20
2023-04-10T03:30:37.150Z,1.10
2023-04-10T03:33:04.867Z,1.10
2023-04-10T03:35:32.600Z,1.10
2023-04-10T03:38:00.722Z,1.10
2023-04-10T03:40:28.279Z,1.20
2023-04-10T03:42:56.062Z,1.20
2023-04-10T03:45:24.197Z,1.20
2023-04-10T03:47:52.579Z,1.20
2023-04-10T03:50:21.399Z,1.20
2023-04-10T03:52:55.521Z,1.20
2023-04-10T03:55:24.690Z,1.30
2023-04-10T03:57:52.743Z,1.40
2023-04-10T04:00:25.030Z,1.40
2023-04-10T04:03:01.166Z,1.30
2023-04-10T04:05:47.142Z,1.20
2023-04-10T04:08:28.269Z,1.20
2023-04-10T04:11:03.569Z,1.10
2023-04-10T04:13:51.029Z,1.00
2023-04-10T04:16:48.089Z,1.00
2023-04-10T04:19:53.961Z,1.00
2023-04-10T04:22:39.864Z,0.90
